createdAt,value
2022-12-25T00:01:16.463Z,101189.09
2022-12-25T00:03:46.081Z,101086.03
2022-12-25T00:06:15.019Z,101173.22
2022-12-25T00:08:46.732Z,101182.47
2022-12-25T00:11:18.762Z,101182.44
2022-12-25T00:13:48.427Z,101222.41
2022-12-25T00:16:23.419Z,101177.94
2022-12-25T00:18:52.563Z,101200.63
2022-12-25T00:21:23.256Z,101165.13
2022-12-25T00:23:59.505Z,101194.78
2022-12-25T00:26:29.116Z,101171.09
2022-12-25T00:28:59.910Z,101165.09
2022-12-25T00:31:28.947Z,101137.38
2022-12-25T00:33:57.657Z,101115.53
2022-12-25T00:36:26.964Z,101105.56
2022-12-25T00:38:55.795Z,101183.09
2022-12-25T00:41:43.790Z,101158.47
2022-12-25T00:44:14.447Z,101173.19
2022-12-25T00:46:43.391Z,101165.19
2022-12-25T00:49:13.380Z,101185.97
2022-12-25T00:51:41.989Z,101170.06
2022-12-25T00:54:12.981Z,101096.66
2022-12-25T00:56:41.560Z,101170.91
2022-12-25T00:59:10.375Z,101180.59
2022-12-25T01:01:40.073Z,101164.78
2022-12-25T01:04:12.317Z,101164.63
2022-12-25T01:06:41.663Z,101187.31
2022-12-25T01:09:29.247Z,101112.72
2022-12-25T01:11:58.358Z,101172.03
2022-12-25T01:14:27.639Z,101159.66
2022-12-25T01:16:56.286Z,101186.75
2022-12-25T01:19:24.990Z,101140.28
2022-12-25T01:21:53.860Z,101151.44
2022-12-25T01:24:22.579Z,101153.06
2022-12-25T01:26:51.268Z,101190.31
2022-12-25T01:29:19.830Z,101153.66
2022-12-25T01:31:48.496Z,101178.09
2022-12-25T01:34:17.243Z,101152.53
2022-12-25T01:36:45.748Z,101173.56
2022-12-25T01:39:15.303Z,101138.47
2022-12-25T01:41:45.881Z,101156.84
2022-12-25T01:44:17.355Z,101177.06
2022-12-25T01:46:47.049Z,101184.72
2022-12-25T01:49:22.371Z,101154.28
2022-12-25T01:51:55.471Z,101122.72
2022-12-25T01:54:47.664Z,101079.88
2022-12-25T01:57:23.357Z,101084.03
2022-12-25T01:59:53.147Z,101154.03
2022-12-25T02:02:23.430Z,101182.84
2022-12-25T02:04:58.626Z,101134.53
2022-12-25T02:07:30.747Z,101193.09
2022-12-25T02:09:59.868Z,101159.84
2022-12-25T02:12:31.950Z,101153.66
2022-12-25T02:15:06.229Z,101166.72
2022-12-25T02:17:38.631Z,101185.06
2022-12-25T02:20:13.935Z,101202.94
2022-12-25T02:23:05.159Z,101208.78
2022-12-25T02:25:52.447Z,101206.81
2022-12-25T02:28:23.376Z,101148.28
2022-12-25T02:30:57.736Z,101171.75
2022-12-25T02:33:55.478Z,101165.44
2022-12-25T02:36:30.215Z,101207.22
2022-12-25T02:39:21.437Z,101180.00
2022-12-25T02:41:55.117Z,101180.94
2022-12-25T02:44:44.732Z,101188.84
2022-12-25T02:47:31.868Z,101201.09
2022-12-25T02:50:20.316Z,101208.19
2022-12-25T02:53:10.457Z,101098.19
2022-12-25T02:56:01.536Z,101199.66
2022-12-25T02:58:51.457Z,101201.59
2022-12-25T03:01:42.850Z,101170.28
2022-12-25T03:04:36.611Z,101171.19
2022-12-25T03:07:17.658Z,101203.53
2022-12-25T03:10:16.383Z,100943.41
2022-12-25T03:12:54.634Z,101208.25
2022-12-25T03:15:42.197Z,101208.31
2022-12-25T03:18:15.502Z,101193.41
2022-12-25T03:21:02.817Z,101169.00
2022-12-25T03:23:53.033Z,101116.75
2022-12-25T03:26:39.877Z,101195.44
2022-12-25T03:29:08.692Z,101159.00
2022-12-25T03:32:04.302Z,101186.00
2022-12-25T03:34:57.957Z,101211.38
2022-12-25T03:38:10.384Z,101092.69
2022-12-25T03:41:25.402Z,101097.13
2022-12-25T03:44:35.777Z,101197.66
2022-12-25T03:47:22.478Z,101169.72
2022-12-25T03:50:43.620Z,101183.84
2022-12-25T03:54:00.926Z,101200.59
2022-12-25T03:56:51.380Z,101185.66
2022-12-25T03:59:40.964Z,101165.75
2022-12-25T04:02:29.381Z,101094.28
2022-12-25T04:05:16.489Z,101168.66
2022-12-25T04:08:03.912Z,101166.91
2022-12-25T04:10:51.247Z,101162.03
2022-12-25T04:13:39.020Z,101157.63
2022-12-25T04:16:26.512Z,101171.75
2022-12-25T04:19:13.476Z,101162.88
2022-12-25T04:22:00.753Z,101087.03
2022-12-25T04:24:47.988Z,101185.69
2022-12-25T04:27:35.093Z,101187.41
2022-12-25T04:30:23.383Z,101211.13
2022-12-25T04:33:16.464Z,101179.59
2022-12-25T04:36:09.887Z,101179.59
2022-12-25T04:38:39.880Z,101101.84
2022-12-25T04:41:10.759Z,101199.88
2022-12-25T04:43:39.832Z,101128.19
2022-12-25T04:46:08.555Z,101194.34
2022-12-25T04:48:37.905Z,101182.81
2022-12-25T04:51:19.748Z,101202.06
2022-12-25T04:53:49.489Z,101221.94
2022-12-25T04:56:19.028Z,101188.72
2022-12-25T04:58:48.627Z,101180.81
2022-12-25T05:01:17.935Z,101173.72
2022-12-25T05:03:47.124Z,101177.91
2022-12-25T05:06:15.875Z,101198.63
2022-12-25T05:08:44.877Z,101195.91
2022-12-25T05:11:17.446Z,101209.53
2022-12-25T05:13:46.858Z,101203.94
2022-12-25T05:16:19.297Z,101216.13
2022-12-25T05:18:52.576Z,101182.81
2022-12-25T05:21:21.839Z,101209.91
2022-12-25T05:23:54.515Z,101238.47
2022-12-25T05:26:26.270Z,101208.66
2022-12-25T05:28:55.833Z,101215.72
2022-12-25T05:31:24.902Z,101215.88
2022-12-25T05:33:54.175Z,101240.25
2022-12-25T05:36:23.039Z,101213.41
2022-12-25T05:38:51.753Z,101230.66
2022-12-25T05:41:21.008Z,101236.00
2022-12-25T05:43:49.915Z,101187.97
2022-12-25T05:46:18.928Z,101208.88
2022-12-25T05:48:47.864Z,101183.50
2022-12-25T05:51:16.853Z,101214.25
2022-12-25T05:53:45.995Z,101230.44
2022-12-25T05:56:14.722Z,101216.28
2022-12-25T05:58:43.724Z,101202.66
2022-12-25T06:01:18.985Z,101124.75
2022-12-25T06:03:48.241Z,101225.44
2022-12-25T06:06:17.554Z,101204.78
2022-12-25T06:08:46.718Z,101180.53
2022-12-25T06:11:16.393Z,101165.69
2022-12-25T06:13:45.716Z,101208.38
2022-12-25T06:16:14.560Z,101209.44
2022-12-25T06:18:46.857Z,101222.44
2022-12-25T06:21:17.421Z,101201.69
2022-12-25T06:23:46.102Z,101225.25
2022-12-25T06:26:19.931Z,101200.16
2022-12-25T06:28:49.368Z,101191.41
2022-12-25T06:31:20.903Z,101198.56
2022-12-25T06:33:50.380Z,101228.22
2022-12-25T06:36:24.871Z,101225.66
2022-12-25T06:38:54.076Z,101229.22
2022-12-25T06:41:25.569Z,101195.34
2022-12-25T06:43:56.905Z,101216.00
2022-12-25T06:46:27.543Z,101223.22
2022-12-25T06:48:58.044Z,101198.81
2022-12-25T06:51:29.932Z,101203.97
2022-12-25T06:53:59.960Z,101230.13
2022-12-25T06:56:29.662Z,101206.38
2022-12-25T06:59:01.345Z,101208.13
2022-12-25T07:01:50.320Z,101231.78
2022-12-25T07:04:25.205Z,101230.75
2022-12-25T07:06:54.350Z,101187.94
2022-12-25T07:09:23.049Z,101222.97
2022-12-25T07:11:52.031Z,101188.63
2022-12-25T07:14:24.708Z,101203.50
2022-12-25T07:16:53.740Z,101140.41
2022-12-25T07:19:22.486Z,101223.47
2022-12-25T07:21:51.273Z,101171.28
2022-12-25T07:24:21.669Z,101233.31
2022-12-25T07:26:52.420Z,101230.97
2022-12-25T07:29:21.348Z,101209.25
2022-12-25T07:31:50.247Z,101231.16
2022-12-25T07:34:19.329Z,101206.72
2022-12-25T07:36:48.036Z,101234.75
2022-12-25T07:39:17.226Z,101177.41
2022-12-25T07:41:46.002Z,101194.97
2022-12-25T07:44:16.221Z,101125.81
2022-12-25T07:46:45.068Z,101214.47
2022-12-25T07:49:13.720Z,101200.41
2022-12-25T07:51:42.576Z,101170.81
2022-12-25T07:54:11.327Z,101178.88
2022-12-25T07:56:40.062Z,101157.81
2022-12-25T07:59:08.844Z,101171.94
2022-12-25T08:01:37.838Z,101185.91
2022-12-25T08:04:07.012Z,101188.41
2022-12-25T08:06:37.090Z,101164.75
2022-12-25T08:09:14.100Z,101182.81
2022-12-25T08:11:47.789Z,101213.50
2022-12-25T08:14:16.921Z,101194.00
2022-12-25T08:16:47.516Z,101185.44
2022-12-25T08:19:17.043Z,101169.69
2022-12-25T08:21:45.762Z,101200.31
2022-12-25T08:24:14.809Z,101184.50
2022-12-25T08:26:43.819Z,101164.38
2022-12-25T08:29:12.818Z,101181.59
2022-12-25T08:31:46.497Z,101198.81
2022-12-25T08:34:15.686Z,101103.41
2022-12-25T08:36:44.728Z,101210.72
2022-12-25T08:39:13.707Z,101184.53
2022-12-25T08:41:42.667Z,101205.34
2022-12-25T08:44:13.710Z,101198.16
2022-12-25T08:46:42.912Z,101177.06
2022-12-25T08:49:12.044Z,101168.19
2022-12-25T08:51:41.093Z,101201.97
2022-12-25T08:54:10.118Z,101178.25
2022-12-25T08:56:38.768Z,101217.44
2022-12-25T08:59:07.621Z,101215.94
2022-12-25T09:01:36.774Z,101213.47
2022-12-25T09:04:05.867Z,101221.38
2022-12-25T09:06:34.887Z,101220.34
2022-12-25T09:09:03.600Z,101212.50
2022-12-25T09:11:32.721Z,101175.56
2022-12-25T09:14:02.068Z,101173.47
2022-12-25T09:16:31.622Z,101081.56
2022-12-25T09:19:00.774Z,101244.97
2022-12-25T09:21:29.752Z,101201.25
2022-12-25T09:23:58.791Z,101207.03
2022-12-25T09:26:28.064Z,101234.06
2022-12-25T09:28:57.205Z,101241.06
2022-12-25T09:31:26.533Z,101199.78
2022-12-25T09:33:58.749Z,101145.16
2022-12-25T09:36:27.650Z,101215.75
2022-12-25T09:38:56.623Z,101217.38
2022-12-25T09:41:25.294Z,101250.59
2022-12-25T09:44:00.446Z,101214.69
2022-12-25T09:46:37.263Z,101213.69
2022-12-25T09:49:28.925Z,101239.88
2022-12-25T09:52:09.235Z,101238.69
2022-12-25T09:54:55.944Z,101254.03
2022-12-25T09:57:26.040Z,101253.59
2022-12-25T09:59:58.063Z,101234.97
2022-12-25T10:02:29.584Z,101263.63
2022-12-25T10:05:19.836Z,101267.72
2022-12-25T10:07:54.559Z,101272.69
2022-12-25T10:11:04.034Z,101262.06
2022-12-25T10:13:54.538Z,101212.66
2022-12-25T10:16:50.989Z,101186.88
2022-12-25T10:19:22.590Z,101262.09
2022-12-25T10:21:55.729Z,101154.28
2022-12-25T10:24:31.734Z,101264.47
2022-12-25T10:27:04.324Z,101249.81
2022-12-25T10:29:36.151Z,101251.59
2022-12-25T10:32:05.643Z,101247.75
2022-12-25T10:34:44.527Z,101236.25
2022-12-25T10:37:13.872Z,101222.84
2022-12-25T10:39:46.975Z,101255.50
2022-12-25T10:42:38.506Z,101273.78
2022-12-25T10:45:09.971Z,101180.88
2022-12-25T10:47:43.139Z,101304.50
2022-12-25T10:50:25.793Z,101311.41
2022-12-25T10:53:10.278Z,101296.56
2022-12-25T10:55:39.441Z,101269.13
2022-12-25T10:58:08.349Z,101245.34
2022-12-25T11:00:37.361Z,101175.13
2022-12-25T11:03:06.592Z,101202.09
2022-12-25T11:05:37.217Z,101293.25
2022-12-25T11:08:21.981Z,101238.50
2022-12-25T11:11:08.871Z,101281.31
2022-12-25T11:13:48.607Z,101287.34
2022-12-25T11:16:40.626Z,101287.75
2022-12-25T11:19:28.676Z,101281.22
2022-12-25T11:22:02.404Z,101281.06
2022-12-25T11:24:33.764Z,101289.72
2022-12-25T11:27:07.044Z,101308.94
2022-12-25T11:29:51.415Z,101267.63
2022-12-25T11:32:42.710Z,101307.91
2022-12-25T11:35:18.050Z,101296.13
2022-12-25T11:37:50.295Z,101276.88
2022-12-25T11:40:28.283Z,101252.00
2022-12-25T11:43:08.239Z,101281.72
2022-12-25T11:45:42.496Z,101286.81
2022-12-25T11:48:25.591Z,101281.19
2022-12-25T11:51:03.770Z,101308.47
2022-12-25T11:53:58.689Z,101321.28
2022-12-25T11:56:31.283Z,101319.38
2022-12-25T11:59:26.678Z,101319.25
2022-12-25T12:02:19.488Z,101289.00
2022-12-25T12:04:56.757Z,101317.22
2022-12-25T12:07:31.521Z,101285.34
2022-12-25T12:10:25.833Z,101288.56
2022-12-25T12:13:03.607Z,101346.69
2022-12-25T12:15:59.310Z,101333.59
2022-12-25T12:18:28.176Z,101326.50
2022-12-25T12:21:05.867Z,101342.47
2022-12-25T12:24:13.227Z,101316.47
2022-12-25T12:26:45.112Z,101312.53
2022-12-25T12:29:30.323Z,101323.00
2022-12-25T12:32:04.848Z,101282.53
2022-12-25T12:34:44.361Z,101307.91
2022-12-25T12:37:33.363Z,101322.84
2022-12-25T12:40:02.877Z,101298.88
2022-12-25T12:42:42.319Z,101252.56
2022-12-25T12:45:26.695Z,101333.97
2022-12-25T12:47:56.075Z,101331.38
2022-12-25T12:50:34.187Z,101331.72
2022-12-25T12:53:19.615Z,101299.38
2022-12-25T12:55:48.473Z,101333.41
2022-12-25T12:58:53.511Z,101297.84
2022-12-25T13:01:28.368Z,101335.38
2022-12-25T13:04:22.100Z,101338.47
2022-12-25T13:07:01.687Z,101338.06
2022-12-25T13:09:41.667Z,101338.38
2022-12-25T13:12:15.842Z,101311.00
2022-12-25T13:14:49.159Z,101282.59
2022-12-25T13:17:29.142Z,101302.66
2022-12-25T13:20:00.652Z,101340.97
2022-12-25T13:22:35.592Z,101353.84
2022-12-25T13:25:11.097Z,101272.94
2022-12-25T13:27:40.113Z,101220.28
2022-12-25T13:30:20.021Z,101293.78
2022-12-25T13:32:50.034Z,101307.16
2022-12-25T13:35:21.964Z,101350.00
2022-12-25T13:37:51.424Z,101344.66
2022-12-25T13:40:29.001Z,101333.97
2022-12-25T13:43:02.873Z,101287.50
2022-12-25T13:45:34.775Z,101213.56
2022-12-25T13:48:16.988Z,101338.06
2022-12-25T13:50:49.267Z,101330.00
2022-12-25T13:53:19.316Z,101344.06
2022-12-25T13:55:55.288Z,101307.97
2022-12-25T13:58:30.989Z,101351.59
2022-12-25T14:01:02.349Z,101311.72
2022-12-25T14:03:45.268Z,101348.63
2022-12-25T14:06:26.118Z,101348.16
2022-12-25T14:08:57.439Z,101307.66
2022-12-25T14:11:29.676Z,101317.25
2022-12-25T14:14:05.284Z,101303.00
2022-12-25T14:16:35.125Z,101341.63
2022-12-25T14:19:04.867Z,101363.25
2022-12-25T14:21:41.741Z,101322.34
2022-12-25T14:24:16.465Z,101303.56
2022-12-25T14:26:45.399Z,101328.72
2022-12-25T14:29:24.998Z,101339.06
2022-12-25T14:32:01.219Z,101325.22
2022-12-25T14:34:34.405Z,101349.44
2022-12-25T14:37:05.193Z,101306.53
2022-12-25T14:39:39.057Z,101326.91
2022-12-25T14:42:21.178Z,101313.31
2022-12-25T14:45:33.856Z,101325.72
2022-12-25T14:48:21.172Z,101362.63
2022-12-25T14:51:03.580Z,101322.19
2022-12-25T14:53:51.102Z,101182.94
2022-12-25T14:56:21.964Z,101327.88
2022-12-25T14:59:01.902Z,101349.34
2022-12-25T15:01:34.938Z,101334.41
2022-12-25T15:04:13.067Z,101351.97
2022-12-25T15:06:55.819Z,101335.13
2022-12-25T15:09:25.209Z,101222.81
2022-12-25T15:11:56.843Z,101332.72
2022-12-25T15:14:28.066Z,101315.94
2022-12-25T15:17:00.538Z,101249.78
2022-12-25T15:19:37.355Z,101316.00
2022-12-25T15:22:08.382Z,101351.84
2022-12-25T15:24:37.998Z,101350.13
2022-12-25T15:27:15.029Z,101314.19
2022-12-25T15:30:09.168Z,101344.41
2022-12-25T15:32:33.881Z,101312.66
2022-12-25T15:35:02.943Z,101346.16
2022-12-25T15:37:32.117Z,101311.34
2022-12-25T15:40:02.197Z,101344.22
2022-12-25T15:42:31.170Z,101297.66
2022-12-25T15:45:00.395Z,101350.75
2022-12-25T15:47:29.442Z,101347.97
2022-12-25T15:50:00.492Z,101340.53
2022-12-25T15:52:30.216Z,101326.16
2022-12-25T15:54:58.898Z,101317.28
2022-12-25T15:57:27.656Z,101311.81
2022-12-25T15:59:56.782Z,101309.34
2022-12-25T16:02:26.198Z,101285.47
2022-12-25T16:04:56.378Z,101318.91
2022-12-25T16:07:26.483Z,101289.03
2022-12-25T16:09:55.243Z,101307.72
2022-12-25T16:12:24.324Z,101286.13
2022-12-25T16:14:53.954Z,101185.19
2022-12-25T16:17:22.805Z,101314.19
2022-12-25T16:19:51.682Z,101330.53
2022-12-25T16:22:23.866Z,101306.97
2022-12-25T16:24:53.828Z,101358.19
2022-12-25T16:27:23.659Z,101332.91
2022-12-25T16:29:53.838Z,101275.91
2022-12-25T16:32:22.972Z,101050.69
2022-12-25T16:34:51.999Z,101286.69
2022-12-25T16:37:21.061Z,101347.41
2022-12-25T16:39:49.944Z,101276.88
2022-12-25T16:42:22.611Z,101241.75
2022-12-25T16:44:51.600Z,101217.16
2022-12-25T16:47:21.138Z,101344.47
2022-12-25T16:49:51.353Z,101311.88
2022-12-25T16:52:22.173Z,101328.00
2022-12-25T16:54:53.298Z,101245.88
2022-12-25T16:57:22.468Z,101329.84
2022-12-25T16:59:51.979Z,101258.72
2022-12-25T17:02:23.159Z,101316.00
2022-12-25T17:04:53.063Z,101315.19
2022-12-25T17:07:23.529Z,101313.72
2022-12-25T17:09:52.497Z,101319.38
2022-12-25T17:12:24.793Z,101346.56
2022-12-25T17:14:53.937Z,101312.75
2022-12-25T17:17:22.695Z,101283.13
2022-12-25T17:19:51.887Z,101334.75
2022-12-25T17:22:21.386Z,101336.91
2022-12-25T17:24:50.709Z,101340.47
2022-12-25T17:27:19.938Z,101326.34
2022-12-25T17:29:49.412Z,101310.44
2022-12-25T17:32:18.195Z,101320.25
2022-12-25T17:34:47.132Z,101319.25
2022-12-25T17:37:16.352Z,101355.09
2022-12-25T17:39:45.091Z,101327.13
2022-12-25T17:42:14.004Z,101300.78
2022-12-25T17:44:42.695Z,101082.69
2022-12-25T17:47:12.892Z,101316.19
2022-12-25T17:49:41.963Z,101355.59
2022-12-25T17:52:10.978Z,101307.16
2022-12-25T17:54:41.699Z,101344.69
2022-12-25T17:57:11.264Z,101332.25
2022-12-25T17:59:40.048Z,101360.28
2022-12-25T18:02:12.906Z,101333.03
2022-12-25T18:04:41.651Z,101324.06
2022-12-25T18:07:10.393Z,101304.91
2022-12-25T18:09:39.217Z,101361.78
2022-12-25T18:12:08.244Z,101318.56
2022-12-25T18:14:40.325Z,101329.03
2022-12-25T18:17:09.149Z,101243.06
2022-12-25T18:19:37.774Z,101299.47
2022-12-25T18:22:06.668Z,101344.84
2022-12-25T18:24:39.613Z,101321.84
2022-12-25T18:27:08.412Z,101319.28
2022-12-25T18:29:37.244Z,101337.56
2022-12-25T18:32:06.768Z,101322.16
2022-12-25T18:34:35.547Z,101362.44
2022-12-25T18:37:05.127Z,101330.31
2022-12-25T18:39:34.829Z,101233.31
2022-12-25T18:42:22.123Z,101323.94
2022-12-25T18:44:51.366Z,101339.97
2022-12-25T18:47:20.276Z,101357.69
2022-12-25T18:49:50.006Z,101246.75
2022-12-25T18:52:49.455Z,101314.38
2022-12-25T18:55:08.646Z,101329.88
2022-12-25T18:57:37.556Z,101246.69
2022-12-25T19:00:06.812Z,101320.31
2022-12-25T19:02:35.944Z,101309.59
2022-12-25T19:05:05.067Z,101316.59
2022-12-25T19:07:33.901Z,101329.78
2022-12-25T19:10:03.242Z,101303.41
2022-12-25T19:12:32.041Z,101303.16
2022-12-25T19:15:00.724Z,101351.47
2022-12-25T19:17:31.886Z,101314.16
2022-12-25T19:20:01.344Z,101277.16
2022-12-25T19:22:30.205Z,101365.31
2022-12-25T19:24:58.943Z,101314.53
2022-12-25T19:27:27.920Z,101331.84
2022-12-25T19:29:56.560Z,101307.91
2022-12-25T19:32:25.366Z,101092.81
2022-12-25T19:34:54.118Z,101300.78
2022-12-25T19:37:22.671Z,101326.97
2022-12-25T19:39:51.522Z,101306.94
2022-12-25T19:42:22.698Z,101299.75
2022-12-25T19:44:51.447Z,101340.28
2022-12-25T19:47:20.283Z,101244.28
2022-12-25T19:49:53.001Z,101301.88
2022-12-25T19:52:22.362Z,101327.84
2022-12-25T19:54:54.199Z,101196.47
2022-12-25T19:57:22.981Z,101287.34
2022-12-25T19:59:59.280Z,101286.91
2022-12-25T20:02:28.184Z,101163.25
2022-12-25T20:04:57.390Z,101357.56
2022-12-25T20:07:26.003Z,101323.78
2022-12-25T20:09:54.947Z,101325.38
2022-12-25T20:12:24.472Z,101326.41
2022-12-25T20:14:53.223Z,101338.44
2022-12-25T20:17:22.309Z,101336.53
2022-12-25T20:19:51.225Z,101330.22
2022-12-25T20:22:19.787Z,101335.31
2022-12-25T20:24:49.804Z,101338.47
2022-12-25T20:27:18.485Z,101335.63
2022-12-25T20:29:47.278Z,101342.94
2022-12-25T20:32:16.288Z,101292.41
2022-12-25T20:34:45.325Z,101349.00
2022-12-25T20:37:14.154Z,101367.81
2022-12-25T20:39:43.003Z,101328.19
2022-12-25T20:42:11.726Z,101299.97
2022-12-25T20:44:40.913Z,101349.94
2022-12-25T20:47:09.825Z,101323.34
2022-12-25T20:49:38.518Z,101344.47
2022-12-25T20:52:07.525Z,101352.34
2022-12-25T20:54:36.463Z,101374.06
2022-12-25T20:57:05.325Z,101326.63
2022-12-25T20:59:37.620Z,101273.63
2022-12-25T21:02:07.807Z,101307.75
2022-12-25T21:04:36.513Z,101367.38
2022-12-25T21:07:06.722Z,101340.31
2022-12-25T21:09:35.435Z,101361.97
2022-12-25T21:12:04.267Z,101369.22
2022-12-25T21:14:32.957Z,101363.84
2022-12-25T21:17:01.694Z,101346.94
2022-12-25T21:19:30.482Z,101344.81
2022-12-25T21:21:59.290Z,101373.22
2022-12-25T21:24:29.059Z,101334.63
2022-12-25T21:26:57.725Z,101330.59
2022-12-25T21:29:26.504Z,101352.06
2022-12-25T21:32:13.940Z,101379.53
2022-12-25T21:34:42.673Z,101346.16
2022-12-25T21:37:11.601Z,101256.47
2022-12-25T21:39:40.370Z,101201.94
2022-12-25T21:42:08.971Z,101352.53
2022-12-25T21:44:40.836Z,101326.50
2022-12-25T21:47:09.566Z,101352.91
2022-12-25T21:49:57.819Z,101363.28
2022-12-25T21:52:26.876Z,101251.50
2022-12-25T21:54:55.535Z,101334.53
2022-12-25T21:57:24.174Z,101359.28
2022-12-25T21:59:52.567Z,101382.78
2022-12-25T22:02:21.909Z,101245.44
2022-12-25T22:04:50.736Z,101328.31
2022-12-25T22:07:19.584Z,101306.91
2022-12-25T22:09:50.202Z,101384.53
2022-12-25T22:12:39.743Z,101312.19
2022-12-25T22:15:10.516Z,101263.66
2022-12-25T22:18:02.225Z,101356.78
2022-12-25T22:20:36.748Z,101375.88
2022-12-25T22:23:06.267Z,101339.97
2022-12-25T22:25:35.464Z,101354.25
2022-12-25T22:28:05.911Z,101341.66
2022-12-25T22:30:34.751Z,101375.72
2022-12-25T22:33:03.815Z,101344.72
2022-12-25T22:35:32.682Z,101370.84
2022-12-25T22:38:02.339Z,101332.16
2022-12-25T22:40:31.020Z,101313.94
2022-12-25T22:42:59.678Z,101260.91
2022-12-25T22:45:28.161Z,101343.28
2022-12-25T22:47:58.405Z,101379.13
2022-12-25T22:50:27.542Z,101340.03
2022-12-25T22:52:56.454Z,101361.84
2022-12-25T22:55:25.912Z,101391.78
2022-12-25T22:57:54.931Z,101381.03
2022-12-25T23:00:24.158Z,101225.22
2022-12-25T23:02:53.136Z,101384.50
2022-12-25T23:05:22.931Z,101391.44
2022-12-25T23:07:52.866Z,101375.31
2022-12-25T23:10:22.438Z,101384.81
2022-12-25T23:13:10.202Z,101363.88
2022-12-25T23:15:39.245Z,101366.34
2022-12-25T23:18:26.160Z,101320.78
2022-12-25T23:21:19.381Z,101342.19
2022-12-25T23:24:07.075Z,101385.69
2022-12-25T23:26:36.061Z,101365.44
2022-12-25T23:29:23.872Z,101405.41
2022-12-25T23:31:54.281Z,101398.63
2022-12-25T23:34:23.071Z,101346.13
2022-12-25T23:36:51.902Z,101355.09
2022-12-25T23:39:20.781Z,101271.00
2022-12-25T23:41:49.701Z,101366.00
2022-12-25T23:44:18.707Z,101356.97
2022-12-25T23:46:52.830Z,101379.13
2022-12-25T23:49:23.369Z,101361.44
2022-12-25T23:51:52.695Z,101389.59
2022-12-25T23:54:24.325Z,101320.78
2022-12-25T23:56:56.080Z,101371.78
2022-12-25T23:59:30.126Z,101363.53
